sensor_id;sensor_type;location;lat;lon;timestamp;pressure;altitude;pressure_sealevel;temperature;humidity
64711;BME280;51139;45.626;6.850;2023-02-05T00:01:46;82928.91;;;-1.96;72.14
64711;BME280;51139;45.626;6.850;2023-02-05T00:04:11;82929.47;;;-2.07;72.95
64711;BME280;51139;45.626;6.850;2023-02-05T00:06:36;82933.03;;;-1.84;71.54
64711;BME280;51139;45.626;6.850;2023-02-05T00:09:02;82926.63;;;-1.62;69.84
64711;BME280;51139;45.626;6.850;2023-02-05T00:11:27;82927.97;;;-1.72;70.05
64711;BME280;51139;45.626;6.850;2023-02-05T00:13:53;82928.72;;;-1.13;67.45
64711;BME280;51139;45.626;6.850;2023-02-05T00:16:20;82936.28;;;-1.42;67.66
64711;BME280;51139;45.626;6.850;2023-02-05T00:18:46;82934.84;;;-1.43;67.73
64711;BME280;51139;45.626;6.850;2023-02-05T00:21:13;82935.31;;;-1.92;69.84
64711;BME280;51139;45.626;6.850;2023-02-05T00:23:39;82934.09;;;-1.96;71.17
64711;BME280;51139;45.626;6.850;2023-02-05T00:26:05;82932.97;;;-1.89;71.26
64711;BME280;51139;45.626;6.850;2023-02-05T00:28:32;82918.31;;;-1.93;71.27
64711;BME280;51139;45.626;6.850;2023-02-05T00:30:58;82927.38;;;-1.82;70.33
64711;BME280;51139;45.626;6.850;2023-02-05T00:33:28;82929.69;;;-1.90;72.24
64711;BME280;51139;45.626;6.850;2023-02-05T00:35:53;82925.28;;;-1.57;70.54
64711;BME280;51139;45.626;6.850;2023-02-05T00:38:19;82921.44;;;-1.62;69.49
64711;BME280;51139;45.626;6.850;2023-02-05T00:40:44;82923.88;;;-1.79;70.07
64711;BME280;51139;45.626;6.850;2023-02-05T00:43:10;82921.19;;;-2.11;71.55
64711;BME280;51139;45.626;6.850;2023-02-05T00:45:35;82923.59;;;-2.08;72.70
64711;BME280;51139;45.626;6.850;2023-02-05T00:48:04;82915.91;;;-1.96;72.24
64711;BME280;51139;45.626;6.850;2023-02-05T00:50:29;82910.50;;;-1.93;71.42
64711;BME280;51139;45.626;6.850;2023-02-05T00:52:55;82916.72;;;-2.11;72.79
64711;BME280;51139;45.626;6.850;2023-02-05T00:55:21;82918.25;;;-1.98;72.09
64711;BME280;51139;45.626;6.850;2023-02-05T00:57:46;82911.44;;;-1.16;67.63
64711;BME280;51139;45.626;6.850;2023-02-05T01:00:12;82919.97;;;-1.42;66.78
64711;BME280;51139;45.626;6.850;2023-02-05T01:02:37;82914.41;;;-1.56;67.50
64711;BME280;51139;45.626;6.850;2023-02-05T01:05:03;82919.13;;;-1.81;68.80
64711;BME280;51139;45.626;6.850;2023-02-05T01:07:28;82916.56;;;-2.01;70.00
64711;BME280;51139;45.626;6.850;2023-02-05T01:09:54;82918.13;;;-1.89;69.56
64711;BME280;51139;45.626;6.850;2023-02-05T01:12:19;82919.50;;;-2.14;70.57
64711;BME280;51139;45.626;6.850;2023-02-05T01:14:44;82915.69;;;-2.19;70.92
64711;BME280;51139;45.626;6.850;2023-02-05T01:17:10;82924.81;;;-2.24;70.95
64711;BME280;51139;45.626;6.850;2023-02-05T01:19:36;82923.66;;;-2.23;70.60
64711;BME280;51139;45.626;6.850;2023-02-05T01:22:02;82921.31;;;-2.41;71.98
64711;BME280;51139;45.626;6.850;2023-02-05T01:24:27;82922.53;;;-2.37;72.52
64711;BME280;51139;45.626;6.850;2023-02-05T01:26:53;82926.03;;;-2.40;72.92
64711;BME280;51139;45.626;6.850;2023-02-05T01:29:21;82926.50;;;-2.41;73.25
64711;BME280;51139;45.626;6.850;2023-02-05T01:31:46;82923.06;;;-2.53;73.60
64711;BME280;51139;45.626;6.850;2023-02-05T01:34:12;82924.75;;;-2.50;73.75
64711;BME280;51139;45.626;6.850;2023-02-05T01:36:37;82932.47;;;-2.56;74.22
64711;BME280;51139;45.626;6.850;2023-02-05T01:39:02;82930.00;;;-2.44;73.41
64711;BME280;51139;45.626;6.850;2023-02-05T01:41:28;82930.31;;;-2.57;74.21
64711;BME280;51139;45.626;6.850;2023-02-05T01:44:08;82926.91;;;-2.48;74.31
64711;BME280;51139;45.626;6.850;2023-02-05T01:46:36;82928.72;;;-2.34;73.58
64711;BME280;51139;45.626;6.850;2023-02-05T01:49:02;82930.97;;;-2.42;73.64
64711;BME280;51139;45.626;6.850;2023-02-05T01:51:29;82917.22;;;-2.48;74.84
64711;BME280;51139;45.626;6.850;2023-02-05T01:53:55;82914.22;;;-2.41;74.95
64711;BME280;51139;45.626;6.850;2023-02-05T01:56:24;82903.47;;;-2.33;74.20
64711;BME280;51139;45.626;6.850;2023-02-05T01:58:58;82919.72;;;-1.92;72.22
64711;BME280;51139;45.626;6.850;2023-02-05T02:01:25;82914.97;;;-1.72;69.44
64711;BME280;51139;45.626;6.850;2023-02-05T02:03:53;82924.25;;;-1.86;69.62
64711;BME280;51139;45.626;6.850;2023-02-05T02:06:21;82917.16;;;-1.65;68.54
64711;BME280;51139;45.626;6.850;2023-02-05T02:08:47;82915.25;;;-1.38;67.32
64711;BME280;51139;45.626;6.850;2023-02-05T02:11:14;82921.00;;;-1.60;68.19
64711;BME280;51139;45.626;6.850;2023-02-05T02:13:44;82917.66;;;-1.61;67.05
64711;BME280;51139;45.626;6.850;2023-02-05T02:16:11;82920.81;;;-1.78;67.89
64711;BME280;51139;45.626;6.850;2023-02-05T02:18:37;82917.00;;;-2.03;69.70
64711;BME280;51139;45.626;6.850;2023-02-05T02:21:37;82917.25;;;-1.80;68.76
64711;BME280;51139;45.626;6.850;2023-02-05T02:29:35;82920.16;;;-1.72;68.93
64711;BME280;51139;45.626;6.850;2023-02-05T02:32:10;82919.94;;;-1.95;69.23
64711;BME280;51139;45.626;6.850;2023-02-05T02:34:49;82922.16;;;-2.09;69.63
64711;BME280;51139;45.626;6.850;2023-02-05T02:37:42;82916.25;;;-2.09;69.56
64711;BME280;51139;45.626;6.850;2023-02-05T02:43:26;82929.03;;;-2.26;70.77
64711;BME280;51139;45.626;6.850;2023-02-05T02:46:00;82922.63;;;-2.31;71.05
64711;BME280;51139;45.626;6.850;2023-02-05T02:48:29;82924.47;;;-2.52;72.35
64711;BME280;51139;45.626;6.850;2023-02-05T02:50:57;82923.06;;;-2.53;73.26
64711;BME280;51139;45.626;6.850;2023-02-05T02:53:27;82927.19;;;-2.61;74.10
64711;BME280;51139;45.626;6.850;2023-02-05T02:55:54;82920.19;;;-2.76;73.81
64711;BME280;51139;45.626;6.850;2023-02-05T02:58:42;82928.19;;;-2.59;74.07
64711;BME280;51139;45.626;6.850;2023-02-05T03:01:10;82923.78;;;-2.53;74.19
64711;BME280;51139;45.626;6.850;2023-02-05T03:03:41;82920.19;;;-2.55;73.43
64711;BME280;51139;45.626;6.850;2023-02-05T03:06:09;82933.03;;;-2.67;74.83
64711;BME280;51139;45.626;6.850;2023-02-05T03:08:44;82935.75;;;-2.76;75.18
64711;BME280;51139;45.626;6.850;2023-02-05T03:11:13;82927.88;;;-2.82;75.32
64711;BME280;51139;45.626;6.850;2023-02-05T03:13:40;82927.84;;;-2.67;74.67
64711;BME280;51139;45.626;6.850;2023-02-05T03:16:06;82932.16;;;-2.79;74.73
64711;BME280;51139;45.626;6.850;2023-02-05T03:18:32;82924.13;;;-2.81;75.93
64711;BME280;51139;45.626;6.850;2023-02-05T03:21:02;82927.34;;;-2.86;75.90
64711;BME280;51139;45.626;6.850;2023-02-05T03:23:30;82921.97;;;-2.82;75.54
64711;BME280;51139;45.626;6.850;2023-02-05T03:25:55;82919.00;;;-2.75;75.36
64711;BME280;51139;45.626;6.850;2023-02-05T03:28:21;82926.66;;;-2.86;75.42
64711;BME280;51139;45.626;6.850;2023-02-05T03:33:34;82922.13;;;-2.71;74.98
64711;BME280;51139;45.626;6.850;2023-02-05T03:36:20;82919.44;;;-2.76;75.18
64711;BME280;51139;45.626;6.850;2023-02-05T03:41:45;82933.25;;;-2.85;76.26
64711;BME280;51139;45.626;6.850;2023-02-05T03:44:32;82924.91;;;-2.74;75.46
64711;BME280;51139;45.626;6.850;2023-02-05T03:50:08;82921.25;;;-2.83;76.94
64711;BME280;51139;45.626;6.850;2023-02-05T03:52:40;82922.25;;;-2.80;75.68
64711;BME280;51139;45.626;6.850;2023-02-05T03:57:56;82923.31;;;-2.87;76.34
64711;BME280;51139;45.626;6.850;2023-02-05T04:00:24;82925.06;;;-2.99;76.96
64711;BME280;51139;45.626;6.850;2023-02-05T04:02:49;82921.19;;;-2.88;76.85
64711;BME280;51139;45.626;6.850;2023-02-05T04:05:15;82919.16;;;-2.99;77.22
64711;BME280;51139;45.626;6.850;2023-02-05T04:07:40;82923.75;;;-3.09;77.39
64711;BME280;51139;45.626;6.850;2023-02-05T04:10:06;82919.91;;;-3.14;77.83
64711;BME280;51139;45.626;6.850;2023-02-05T04:12:31;82931.31;;;-3.05;77.56
64711;BME280;51139;45.626;6.850;2023-02-05T04:14:56;82926.94;;;-2.99;77.27
64711;BME280;51139;45.626;6.850;2023-02-05T04:17:22;82930.00;;;-3.16;78.07
64711;BME280;51139;45.626;6.850;2023-02-05T04:19:47;82924.81;;;-3.01;77.84
64711;BME280;51139;45.626;6.850;2023-02-05T04:22:12;82929.34;;;-2.96;77.55
64711;BME280;51139;45.626;6.850;2023-02-05T04:24:38;82931.94;;;-2.96;77.30
64711;BME280;51139;45.626;6.850;2023-02-05T04:27:03;82933.00;;;-3.02;77.54
64711;BME280;51139;45.626;6.850;2023-02-05T04:29:29;82937.16;;;-3.11;77.45
64711;BME280;51139;45.626;6.850;2023-02-05T04:31:54;82940.09;;;-3.18;79.07
64711;BME280;51139;45.626;6.850;2023-02-05T04:34:19;82945.91;;;-3.08;77.91
64711;BME280;51139;45.626;6.850;2023-02-05T04:36:45;82947.16;;;-3.18;78.92
64711;BME280;51139;45.626;6.850;2023-02-05T04:39:10;82940.53;;;-3.04;78.46
64711;BME280;51139;45.626;6.850;2023-02-05T04:41:35;82942.94;;;-3.01;78.45
64711;BME280;51139;45.626;6.850;2023-02-05T04:44:02;82933.38;;;-3.10;78.10
64711;BME280;51139;45.626;6.850;2023-02-05T04:46:27;82930.06;;;-3.10;79.08
64711;BME280;51139;45.626;6.850;2023-02-05T04:48:53;82934.19;;;-3.18;78.96
64711;BME280;51139;45.626;6.850;2023-02-05T04:51:18;82943.59;;;-3.21;79.12
64711;BME280;51139;45.626;6.850;2023-02-05T04:53:43;82944.22;;;-3.26;79.48
64711;BME280;51139;45.626;6.850;2023-02-05T04:56:11;82942.22;;;-3.16;78.98
64711;BME280;51139;45.626;6.850;2023-02-05T04:58:37;82935.72;;;-3.27;80.90
64711;BME280;51139;45.626;6.850;2023-02-05T05:01:02;82934.78;;;-2.94;79.45
64711;BME280;51139;45.626;6.850;2023-02-05T05:03:28;82948.31;;;-2.69;75.92
64711;BME280;51139;45.626;6.850;2023-02-05T05:05:54;82942.06;;;-3.13;77.91
64711;BME280;51139;45.626;6.850;2023-02-05T05:08:19;82936.34;;;-3.17;79.16
64711;BME280;51139;45.626;6.850;2023-02-05T05:10:44;82934.03;;;-3.15;79.03
64711;BME280;51139;45.626;6.850;2023-02-05T05:13:10;82935.47;;;-3.29;80.28
64711;BME280;51139;45.626;6.850;2023-02-05T05:15:35;82934.81;;;-3.09;80.82
64711;BME280;51139;45.626;6.850;2023-02-05T05:18:01;82936.66;;;-2.94;79.45
64711;BME280;51139;45.626;6.850;2023-02-05T05:20:26;82939.56;;;-2.71;78.10
64711;BME280;51139;45.626;6.850;2023-02-05T05:22:54;82933.75;;;-3.02;78.39
64711;BME280;51139;45.626;6.850;2023-02-05T05:25:19;82937.31;;;-3.14;79.56
64711;BME280;51139;45.626;6.850;2023-02-05T05:27:45;82939.47;;;-3.28;81.42
64711;BME280;51139;45.626;6.850;2023-02-05T05:30:11;82947.13;;;-2.88;79.82
64711;BME280;51139;45.626;6.850;2023-02-05T05:32:36;82934.53;;;-2.96;78.57
64711;BME280;51139;45.626;6.850;2023-02-05T05:35:02;82921.75;;;-2.64;77.84
64711;BME280;51139;45.626;6.850;2023-02-05T05:37:27;82932.94;;;-2.72;76.87
64711;BME280;51139;45.626;6.850;2023-02-05T05:39:52;82932.25;;;-2.73;75.72
64711;BME280;51139;45.626;6.850;2023-02-05T05:42:37;82921.84;;;-2.94;76.83
64711;BME280;51139;45.626;6.850;2023-02-05T05:45:21;82931.69;;;-2.98;77.01
64711;BME280;51139;45.626;6.850;2023-02-05T05:47:46;82935.97;;;-2.59;75.33
64711;BME280;51139;45.626;6.850;2023-02-05T05:50:12;82934.56;;;-2.75;74.01
64711;BME280;51139;45.626;6.850;2023-02-05T05:52:37;82931.56;;;-2.32;73.49
64711;BME280;51139;45.626;6.850;2023-02-05T05:55:03;82938.66;;;-2.68;74.28
64711;BME280;51139;45.626;6.850;2023-02-05T05:57:28;82949.47;;;-2.90;75.89
64711;BME280;51139;45.626;6.850;2023-02-05T05:59:54;82939.47;;;-2.98;75.60
64711;BME280;51139;45.626;6.850;2023-02-05T06:02:19;82936.34;;;-3.32;78.50
64711;BME280;51139;45.626;6.850;2023-02-05T06:04:45;82944.94;;;-3.41;79.68
64711;BME280;51139;45.626;6.850;2023-02-05T06:07:10;82935.81;;;-3.21;78.71
64711;BME280;51139;45.626;6.850;2023-02-05T06:09:35;82934.81;;;-3.09;77.61
64711;BME280;51139;45.626;6.850;2023-02-05T06:12:01;82933.75;;;-3.02;77.93
64711;BME280;51139;45.626;6.850;2023-02-05T06:14:26;82934.19;;;-3.18;77.56
64711;BME280;51139;45.626;6.850;2023-02-05T06:16:52;82938.47;;;-3.15;78.00
64711;BME280;51139;45.626;6.850;2023-02-05T06:19:19;82937.03;;;-3.16;78.35
64711;BME280;51139;45.626;6.850;2023-02-05T06:21:44;82928.75;;;-3.20;78.24
64711;BME280;51139;45.626;6.850;2023-02-05T06:24:10;82924.13;;;-3.31;78.41
64711;BME280;51139;45.626;6.850;2023-02-05T06:26:35;82942.91;;;-3.37;79.15
64711;BME280;51139;45.626;6.850;2023-02-05T06:29:00;82936.09;;;-3.34;79.12
64711;BME280;51139;45.626;6.850;2023-02-05T06:31:29;82931.72;;;-3.43;79.95
64711;BME280;51139;45.626;6.850;2023-02-05T06:33:54;82928.16;;;-3.30;80.05
64711;BME280;51139;45.626;6.850;2023-02-05T06:36:20;82929.03;;;-3.33;79.29
64711;BME280;51139;45.626;6.850;2023-02-05T06:38:45;82938.03;;;-3.29;79.66
64711;BME280;51139;45.626;6.850;2023-02-05T06:41:10;82939.63;;;-3.16;78.77
64711;BME280;51139;45.626;6.850;2023-02-05T06:43:36;82935.88;;;-3.15;78.67
64711;BME280;51139;45.626;6.850;2023-02-05T06:46:01;82947.16;;;-3.03;77.51
64711;BME280;51139;45.626;6.850;2023-02-05T06:48:26;82943.22;;;-3.29;78.22
64711;BME280;51139;45.626;6.850;2023-02-05T06:50:52;82938.34;;;-3.42;79.77
64711;BME280;51139;45.626;6.850;2023-02-05T06:53:17;82942.97;;;-3.31;79.57
64711;BME280;51139;45.626;6.850;2023-02-05T06:55:42;82944.50;;;-3.39;80.35
64711;BME280;51139;45.626;6.850;2023-02-05T06:58:08;82936.72;;;-3.24;80.24
64711;BME280;51139;45.626;6.850;2023-02-05T07:00:34;82940.09;;;-3.03;78.83
64711;BME280;51139;45.626;6.850;2023-02-05T07:03:00;82944.47;;;-3.09;78.81
64711;BME280;51139;45.626;6.850;2023-02-05T07:05:25;82946.88;;;-3.20;79.06
64711;BME280;51139;45.626;6.850;2023-02-05T07:07:50;82952.06;;;-3.05;78.89
64711;BME280;51139;45.626;6.850;2023-02-05T07:10:16;82938.84;;;-3.23;79.79
64711;BME280;51139;45.626;6.850;2023-02-05T07:12:42;82940.53;;;-3.04;79.41
64711;BME280;51139;45.626;6.850;2023-02-05T07:15:08;82947.34;;;-3.22;79.91
64711;BME280;51139;45.626;6.850;2023-02-05T07:17:34;82946.72;;;-3.32;80.04
64711;BME280;51139;45.626;6.850;2023-02-05T07:19:59;82951.28;;;-3.27;80.40
64711;BME280;51139;45.626;6.850;2023-02-05T07:22:25;82954.50;;;-3.32;80.90
64711;BME280;51139;45.626;6.850;2023-02-05T07:24:50;82943.59;;;-3.36;80.76
64711;BME280;51139;45.626;6.850;2023-02-05T07:27:16;82933.41;;;-3.25;79.97
64711;BME280;51139;45.626;6.850;2023-02-05T07:29:41;82929.25;;;-2.86;78.08
64711;BME280;51139;45.626;6.850;2023-02-05T07:32:07;82934.59;;;-2.90;77.92
64711;BME280;51139;45.626;6.850;2023-02-05T07:34:32;82936.75;;;-2.88;77.72
64711;BME280;51139;45.626;6.850;2023-02-05T07:36:57;82946.28;;;-2.80;77.86
64711;BME280;51139;45.626;6.850;2023-02-05T07:39:23;82941.56;;;-2.45;76.64
64711;BME280;51139;45.626;6.850;2023-02-05T07:41:48;82944.94;;;-2.18;75.37
64711;BME280;51139;45.626;6.850;2023-02-05T07:44:15;82947.53;;;-1.51;71.98
64711;BME280;51139;45.626;6.850;2023-02-05T07:46:40;82948.78;;;-0.88;67.87
64711;BME280;51139;45.626;6.850;2023-02-05T07:49:06;82949.44;;;-0.93;65.98
64711;BME280;51139;45.626;6.850;2023-02-05T07:51:31;82946.34;;;-0.97;65.95
64711;BME280;51139;45.626;6.850;2023-02-05T07:53:57;82955.72;;;-0.73;64.50
64711;BME280;51139;45.626;6.850;2023-02-05T07:56:22;82965.56;;;-0.13;62.29
64711;BME280;51139;45.626;6.850;2023-02-05T07:58:50;82959.69;;;0.53;59.87
64711;BME280;51139;45.626;6.850;2023-02-05T08:01:15;82961.97;;;1.28;57.18
64711;BME280;51139;45.626;6.850;2023-02-05T08:03:41;82961.97;;;1.28;55.04
64711;BME280;51139;45.626;6.850;2023-02-05T08:06:08;82965.25;;;1.86;53.47
64711;BME280;51139;45.626;6.850;2023-02-05T08:08:35;82972.09;;;2.17;51.62
64711;BME280;51139;45.626;6.850;2023-02-05T08:11:04;82966.69;;;1.87;52.76
64711;BME280;51139;45.626;6.850;2023-02-05T08:13:30;82961.47;;;2.74;50.50
64711;BME280;51139;45.626;6.850;2023-02-05T08:15:56;82958.31;;;2.23;51.16
64711;BME280;51139;45.626;6.850;2023-02-05T08:18:21;82965.84;;;2.43;50.35
64711;BME280;51139;45.626;6.850;2023-02-05T08:20:50;82964.59;;;2.67;50.44
64711;BME280;51139;45.626;6.850;2023-02-05T08:23:16;82954.66;;;3.80;48.27
64711;BME280;51139;45.626;6.850;2023-02-05T08:25:41;82938.72;;;4.03;47.06
64711;BME280;51139;45.626;6.850;2023-02-05T08:28:07;82959.25;;;3.99;48.28
64711;BME280;51139;45.626;6.850;2023-02-05T08:30:33;82957.94;;;4.11;46.96
64711;BME280;51139;45.626;6.850;2023-02-05T08:32:58;82954.59;;;2.60;48.75
64711;BME280;51139;45.626;6.850;2023-02-05T08:35:23;82956.25;;;3.16;47.98
64711;BME280;51139;45.626;6.850;2023-02-05T08:37:49;82953.59;;;3.22;49.39
64711;BME280;51139;45.626;6.850;2023-02-05T08:40:14;82941.47;;;4.16;45.72
64711;BME280;51139;45.626;6.850;2023-02-05T08:42:40;82951.31;;;3.79;47.13
64711;BME280;51139;45.626;6.850;2023-02-05T08:45:05;82953.69;;;3.77;48.09
64711;BME280;51139;45.626;6.850;2023-02-05T08:47:34;82945.66;;;4.00;47.66
64711;BME280;51139;45.626;6.850;2023-02-05T08:49:59;82940.28;;;4.42;45.80
64711;BME280;51139;45.626;6.850;2023-02-05T08:52:25;82960.88;;;3.77;46.22
64711;BME280;51139;45.626;6.850;2023-02-05T08:54:50;82962.13;;;5.14;45.89
64711;BME280;51139;45.626;6.850;2023-02-05T08:57:16;82951.78;;;4.58;45.53
64711;BME280;51139;45.626;6.850;2023-02-05T08:59:41;82938.91;;;4.35;46.20
64711;BME280;51139;45.626;6.850;2023-02-05T09:02:08;82941.28;;;4.58;45.86
64711;BME280;51139;45.626;6.850;2023-02-05T09:04:35;82941.28;;;4.58;46.60
64711;BME280;51139;45.626;6.850;2023-02-05T09:07:01;82940.59;;;4.58;47.24
64711;BME280;51139;45.626;6.850;2023-02-05T09:09:26;82944.75;;;5.30;46.55
64711;BME280;51139;45.626;6.850;2023-02-05T09:11:51;82953.16;;;6.99;41.29
64711;BME280;51139;45.626;6.850;2023-02-05T09:14:17;82940.44;;;5.65;44.56
64711;BME280;51139;45.626;6.850;2023-02-05T09:16:42;82953.25;;;5.17;46.13
64711;BME280;51139;45.626;6.850;2023-02-05T09:19:07;82947.59;;;5.32;45.90
64711;BME280;51139;45.626;6.850;2023-02-05T09:21:33;82954.13;;;5.25;47.08
64711;BME280;51139;45.626;6.850;2023-02-05T09:23:59;82945.81;;;5.59;43.82
64711;BME280;51139;45.626;6.850;2023-02-05T09:26:24;82948.56;;;6.32;43.20
64711;BME280;51139;45.626;6.850;2023-02-05T09:28:50;82943.22;;;7.67;39.48
64711;BME280;51139;45.626;6.850;2023-02-05T09:31:18;82950.03;;;8.60;38.17
64711;BME280;51139;45.626;6.850;2023-02-05T09:33:44;82937.75;;;8.92;36.22
64711;BME280;51139;45.626;6.850;2023-02-05T09:36:14;82933.50;;;8.60;37.93
64711;BME280;51139;45.626;6.850;2023-02-05T09:38:40;82943.69;;;7.30;41.14
64711;BME280;51139;45.626;6.850;2023-02-05T09:49:02;82935.19;;;6.30;42.29
64711;BME280;51139;45.626;6.850;2023-02-05T09:51:41;82941.91;;;7.12;41.51
64711;BME280;51139;45.626;6.850;2023-02-05T09:54:19;82933.50;;;7.96;39.96
64711;BME280;51139;45.626;6.850;2023-02-05T09:56:47;82932.00;;;8.72;37.75
64711;BME280;51139;45.626;6.850;2023-02-05T09:59:17;82932.66;;;8.01;40.22
64711;BME280;51139;45.626;6.850;2023-02-05T10:01:57;82940.19;;;7.01;42.40
64711;BME280;51139;45.626;6.850;2023-02-05T10:04:24;82939.16;;;7.18;41.84
64711;BME280;51139;45.626;6.850;2023-02-05T10:18:00;82941.75;;;5.20;45.27
64711;BME280;51139;45.626;6.850;2023-02-05T10:29:03;82940.69;;;5.09;47.48
64711;BME280;51139;45.626;6.850;2023-02-05T10:31:45;82929.84;;;5.38;45.67
64711;BME280;51139;45.626;6.850;2023-02-05T10:34:18;82931.88;;;5.45;44.87
64711;BME280;51139;45.626;6.850;2023-02-05T10:36:52;82926.09;;;5.66;45.36
64711;BME280;51139;45.626;6.850;2023-02-05T10:39:21;82926.69;;;5.59;44.36
64711;BME280;51139;45.626;6.850;2023-02-05T10:41:55;82919.59;;;4.58;47.91
64711;BME280;51139;45.626;6.850;2023-02-05T10:44:31;82912.94;;;4.95;49.53
64711;BME280;51139;45.626;6.850;2023-02-05T10:47:04;82917.19;;;4.79;48.04
64711;BME280;51139;45.626;6.850;2023-02-05T10:52:11;82919.78;;;5.04;48.59
64711;BME280;51139;45.626;6.850;2023-02-05T10:54:38;82904.78;;;5.18;45.87
64711;BME280;51139;45.626;6.850;2023-02-05T10:57:11;82900.31;;;4.74;48.49
64711;BME280;51139;45.626;6.850;2023-02-05T10:59:43;82897.63;;;4.99;48.61
64711;BME280;51139;45.626;6.850;2023-02-05T11:02:12;82899.28;;;3.28;50.31
64711;BME280;51139;45.626;6.850;2023-02-05T11:04:43;82899.97;;;3.90;50.24
64711;BME280;51139;45.626;6.850;2023-02-05T11:07:18;82895.19;;;4.82;47.05
64711;BME280;51139;45.626;6.850;2023-02-05T11:09:46;82883.72;;;5.04;48.61
64711;BME280;51139;45.626;6.850;2023-02-05T11:12:29;82884.69;;;3.94;48.83
64711;BME280;51139;45.626;6.850;2023-02-05T11:15:00;82892.44;;;3.50;49.27
64711;BME280;51139;45.626;6.850;2023-02-05T11:17:36;82883.16;;;3.49;50.86
64711;BME280;51139;45.626;6.850;2023-02-05T11:20:20;82885.31;;;3.50;51.68
64711;BME280;51139;45.626;6.850;2023-02-05T11:22:46;82875.69;;;3.64;50.25
64711;BME280;51139;45.626;6.850;2023-02-05T11:27:37;82854.84;;;3.17;50.82
64711;BME280;51139;45.626;6.850;2023-02-05T11:30:30;82860.88;;;2.64;50.74
64711;BME280;51139;45.626;6.850;2023-02-05T11:32:57;82860.03;;;2.44;53.55
64711;BME280;51139;45.626;6.850;2023-02-05T11:35:25;82853.91;;;2.84;53.70
64711;BME280;51139;45.626;6.850;2023-02-05T11:40:29;82835.78;;;4.02;50.51
64711;BME280;51139;45.626;6.850;2023-02-05T11:43:16;82834.47;;;4.34;50.12
64711;BME280;51139;45.626;6.850;2023-02-05T11:45:48;82833.16;;;3.77;49.11
64711;BME280;51139;45.626;6.850;2023-02-05T11:48:31;82839.13;;;3.78;48.78
64711;BME280;51139;45.626;6.850;2023-02-05T11:50:59;82828.72;;;4.35;49.79
64711;BME280;51139;45.626;6.850;2023-02-05T11:53:25;82826.66;;;3.84;49.20
64711;BME280;51139;45.626;6.850;2023-02-05T11:55:56;82834.47;;;2.20;54.17
64711;BME280;51139;45.626;6.850;2023-02-05T11:58:24;82833.28;;;1.62;54.77
64711;BME280;51139;45.626;6.850;2023-02-05T12:00:58;82827.97;;;2.38;56.04
64711;BME280;51139;45.626;6.850;2023-02-05T12:03:29;82834.69;;;3.06;53.54
64711;BME280;51139;45.626;6.850;2023-02-05T12:06:09;82831.19;;;2.14;51.87
64711;BME280;51139;45.626;6.850;2023-02-05T12:14:04;82819.72;;;2.70;52.68
64711;BME280;51139;45.626;6.850;2023-02-05T12:19:29;82816.97;;;1.10;57.97
64711;BME280;51139;45.626;6.850;2023-02-05T12:22:09;82812.69;;;1.36;58.60
64711;BME280;51139;45.626;6.850;2023-02-05T12:25:04;82808.97;;;2.38;55.84
64711;BME280;51139;45.626;6.850;2023-02-05T12:35:32;82790.44;;;1.88;59.01
64711;BME280;51139;45.626;6.850;2023-02-05T12:38:21;82778.31;;;2.74;57.35
64711;BME280;51139;45.626;6.850;2023-02-05T12:43:44;82763.63;;;2.66;56.54
64711;BME280;51139;45.626;6.850;2023-02-05T12:49:05;82776.13;;;3.09;53.67
64711;BME280;51139;45.626;6.850;2023-02-05T12:57:07;82753.31;;;3.59;51.93
64711;BME280;51139;45.626;6.850;2023-02-05T13:02:28;82735.88;;;3.62;52.39
64711;BME280;51139;45.626;6.850;2023-02-05T13:05:19;82732.72;;;3.69;51.81
64711;BME280;51139;45.626;6.850;2023-02-05T13:07:52;82730.38;;;3.65;52.93
64711;BME280;51139;45.626;6.850;2023-02-05T13:10:33;82735.22;;;3.56;52.74
64711;BME280;51139;45.626;6.850;2023-02-05T13:13:05;82723.84;;;3.03;53.44
64711;BME280;51139;45.626;6.850;2023-02-05T13:15:42;82732.94;;;3.46;54.49
64711;BME280;51139;45.626;6.850;2023-02-05T13:18:16;82735.31;;;3.69;51.80
64711;BME280;51139;45.626;6.850;2023-02-05T13:21:01;82735.28;;;3.94;48.74
64711;BME280;51139;45.626;6.850;2023-02-05T13:23:46;82730.47;;;3.79;48.75
64711;BME280;51139;45.626;6.850;2023-02-05T13:26:39;82721.03;;;2.96;49.84
64711;BME280;51139;45.626;6.850;2023-02-05T13:29:26;82720.75;;;2.44;51.95
64711;BME280;51139;45.626;6.850;2023-02-05T13:31:56;82723.47;;;3.43;52.71
64711;BME280;51139;45.626;6.850;2023-02-05T13:34:24;82715.22;;;3.33;53.42
64711;BME280;51139;45.626;6.850;2023-02-05T13:37:16;82718.28;;;3.13;53.42
64711;BME280;51139;45.626;6.850;2023-02-05T13:42:56;82708.03;;;2.90;55.34
64711;BME280;51139;45.626;6.850;2023-02-05T13:54:02;82720.19;;;3.12;55.26
64711;BME280;51139;45.626;6.850;2023-02-05T13:56:46;82719.38;;;2.98;56.06
64711;BME280;51139;45.626;6.850;2023-02-05T13:59:53;82718.28;;;3.13;55.58
64711;BME280;51139;45.626;6.850;2023-02-05T14:02:41;82723.72;;;3.15;54.17
64711;BME280;51139;45.626;6.850;2023-02-05T14:05:08;82718.84;;;2.75;53.75
64711;BME280;51139;45.626;6.850;2023-02-05T14:07:43;82715.00;;;2.51;54.86
64711;BME280;51139;45.626;6.850;2023-02-05T14:10:25;82713.13;;;2.46;54.89
64711;BME280;51139;45.626;6.850;2023-02-05T14:12:52;82715.03;;;2.03;57.30
64711;BME280;51139;45.626;6.850;2023-02-05T14:23:00;82714.56;;;2.77;57.29
64711;BME280;51139;45.626;6.850;2023-02-05T14:30:49;82702.66;;;2.76;58.92
64711;BME280;51139;45.626;6.850;2023-02-05T14:38:42;82698.97;;;1.94;60.94
64711;BME280;51139;45.626;6.850;2023-02-05T14:41:14;82685.25;;;2.18;61.82
64711;BME280;51139;45.626;6.850;2023-02-05T14:43:53;82692.53;;;1.47;64.41
64711;BME280;51139;45.626;6.850;2023-02-05T14:46:33;82688.56;;;2.55;64.33
64711;BME280;51139;45.626;6.850;2023-02-05T14:49:03;82685.28;;;2.48;61.05
64711;BME280;51139;45.626;6.850;2023-02-05T14:51:40;82688.16;;;1.13;62.60
64711;BME280;51139;45.626;6.850;2023-02-05T14:54:15;82682.94;;;2.09;60.94
64711;BME280;51139;45.626;6.850;2023-02-05T14:56:45;82676.94;;;2.19;60.52
64711;BME280;51139;45.626;6.850;2023-02-05T15:01:55;82662.56;;;2.01;63.87
64711;BME280;51139;45.626;6.850;2023-02-05T15:04:41;82657.19;;;1.88;65.17
64711;BME280;51139;45.626;6.850;2023-02-05T15:07:13;82667.19;;;2.20;65.70
64711;BME280;51139;45.626;6.850;2023-02-05T15:09:45;82660.28;;;2.53;64.08
64711;BME280;51139;45.626;6.850;2023-02-05T15:12:32;82669.84;;;2.75;63.15
64711;BME280;51139;45.626;6.850;2023-02-05T15:15:22;82668.63;;;2.21;65.37